This is the latest recevied weather packets stored in our database for station/object SA7AHC. If no packets are shown the sender has not sent any weather packets the latest 10 day(s).
| Time | Temp. | Humidity | Pressure | Rain* | Wind** | Luminosity | Snow |
|---|---|---|---|---|---|---|---|
| 1778031244 | 1.11° C | 71% | 1011.7 hPa | 0 mm | - | 0 W/m² | - |
| 1778030648 | 1.11° C | 75% | 1011.7 hPa | 0 mm | - | 0 W/m² | - |
| 1778030042 | 1.11° C | 73% | 1011.4 hPa | 0 mm | - | 0 W/m² | - |
| 1778029432 | 0.56° C | 77% | 1011.5 hPa | 0 mm | - | 0 W/m² | - |
| 1778028828 | 0.56° C | 79% | 1011.5 hPa | 0 mm | - | 0 W/m² | - |
| 1778028222 | 0.56° C | 79% | 1011.4 hPa | 0 mm | - | 0 W/m² | - |
| 1778027616 | 1.11° C | 78% | 1011.4 hPa | 0 mm | - | 0 W/m² | - |
| 1778027016 | 1.11° C | 76% | 1011.4 hPa | 0 mm | - | 0 W/m² | - |
| 1778025819 | 0.56° C | 80% | 1011.3 hPa | 0 mm | - | 0 W/m² | - |
| 1778025216 | 1.11° C | 79% | 1011.3 hPa | 0 mm | - | 0 W/m² | - |
| 1778024613 | 1.67° C | 77% | 1011.4 hPa | 0 mm | - | 0 W/m² | - |
| 1778024015 | 1.67° C | 75% | 1011.5 hPa | 0 mm | - | 0 W/m² | - |
| 1778023418 | 1.67° C | 71% | 1011.5 hPa | 0 mm | - | 0 W/m² | - |
| 1778022818 | 2.22° C | 66% | 1011.5 hPa | 0 mm | - | 0 W/m² | - |
| 1778022225 | 2.22° C | 67% | 1011.5 hPa | 0 mm | - | 0 W/m² | - |
| 1778021617 | 2.22° C | 70% | 1011.6 hPa | 0 mm | - | 0 W/m² | - |
| 1778021012 | 2.78° C | 70% | 1011.6 hPa | 0 mm | - | 0 W/m² | - |
| 1778020414 | 2.78° C | 66% | 1011.5 hPa | 0 mm | - | 0 W/m² | - |
| 1778019814 | 3.33° C | 64% | 1011.5 hPa | 0 mm | - | 0 W/m² | - |
| 1778019212 | 3.33° C | 65% | 1011.6 hPa | 0 mm | - | 0 W/m² | - |
| 1778018616 | 3.89° C | 62% | 1011.6 hPa | 0 mm | - | 0 W/m² | - |
| 1778018009 | 4.44° C | 62% | 1011.6 hPa | 0 mm | - | 0 W/m² | - |
| 1778017394 | 5° C | 56% | 1011.7 hPa | 0 mm | - | 0 W/m² | - |
| 1778016787 | 5° C | 53% | 1011.6 hPa | 0 mm | - | 0 W/m² | - |
| 1778016185 | 4.44° C | 56% | 1011.6 hPa | 0 mm | - | 0 W/m² | - |
* Rain latest hour (hover to see other rain measurements)
** Current wind speed in m/s (hover to see current wind gust speed)